createdAt,value
2017-07-11T16:29:46.316Z,2308
2017-07-11T16:30:02.218Z,2304
2017-07-11T16:32:11.065Z,2372
2017-07-11T16:33:11.060Z,2468
2017-07-11T16:34:10.719Z,2584
2017-07-11T16:35:10.718Z,2696
2017-07-11T16:36:10.386Z,2784
2017-07-11T16:37:10.695Z,2856
2017-07-11T16:38:10.682Z,2928
2017-07-11T16:39:10.659Z,2960
2017-07-11T16:40:10.342Z,3012
2017-07-11T16:41:10.645Z,3076
2017-07-11T16:42:10.948Z,3076
2017-07-11T16:43:10.290Z,3088
2017-07-11T16:44:10.906Z,3088
2017-07-11T16:45:10.917Z,3120
2017-07-11T16:46:10.906Z,3136
2017-07-11T16:47:10.873Z,3124
2017-07-11T16:48:10.565Z,3108
2017-07-11T16:49:10.864Z,3076
2017-07-11T16:50:10.531Z,3048
2017-07-11T16:51:10.526Z,3012
2017-07-11T16:52:10.186Z,2968
2017-07-11T16:53:10.625Z,2916
2017-07-11T16:54:10.214Z,2852
2017-07-11T16:55:10.870Z,2812
2017-07-11T16:56:10.453Z,2780
2017-07-11T16:57:10.792Z,2756
2017-07-11T16:58:10.781Z,2716
2017-07-11T16:59:10.124Z,2684
2017-07-11T17:00:10.813Z,2656
2017-07-11T17:01:10.766Z,2600
2017-07-11T17:02:10.765Z,2532
2017-07-11T17:03:10.054Z,2472
2017-07-11T17:04:10.491Z,2424
2017-07-11T17:05:10.427Z,2380
2017-07-11T17:06:10.377Z,2348
2017-07-11T17:07:10.335Z,2320
2017-07-11T17:08:10.415Z,2288
2017-07-11T17:09:10.751Z,2264
2017-07-11T17:10:10.619Z,2248
2017-07-11T17:11:10.605Z,2244
2017-07-11T17:12:10.636Z,2232
2017-07-11T17:13:10.691Z,2228
2017-07-11T17:14:10.248Z,2224
2017-07-11T17:15:09.938Z,2216
2017-07-11T17:16:10.558Z,2204
2017-07-11T17:17:10.248Z,2184
2017-07-11T17:18:10.213Z,2156
2017-07-11T17:19:09.874Z,2124
2017-07-11T17:20:10.194Z,2084
2017-07-11T17:21:10.541Z,2040
2017-07-11T17:22:10.495Z,1992
2017-07-11T17:23:10.449Z,1940
2017-07-11T17:24:10.469Z,1888
2017-07-11T17:25:10.484Z,1848
2017-07-11T17:26:10.118Z,1816
2017-07-11T17:27:10.417Z,1784
2017-07-11T17:28:10.096Z,1748
2017-07-11T17:29:10.404Z,1716
2017-07-11T17:30:10.427Z,1692
2017-07-11T17:31:10.389Z,1660
2017-07-11T17:32:10.456Z,1628
2017-07-11T17:33:09.739Z,1584
2017-07-11T17:34:10.345Z,1544
2017-07-11T17:35:10.344Z,1516
2017-07-11T17:36:10.326Z,1488
2017-07-11T17:37:10.321Z,1468
2017-07-11T17:38:10.000Z,1448
2017-07-11T17:39:10.283Z,1424
2017-07-11T17:40:09.955Z,1396
2017-07-11T17:41:09.995Z,1380
2017-07-11T17:42:10.276Z,1388
2017-07-11T17:43:09.965Z,1404
2017-07-11T17:44:10.215Z,1412
2017-07-11T17:45:10.217Z,1424
2017-07-11T17:46:10.208Z,1420
2017-07-11T17:47:10.230Z,1408
2017-07-11T17:48:09.958Z,1384
2017-07-11T17:49:10.172Z,1360
2017-07-11T17:50:10.174Z,1344
2017-07-11T17:51:10.116Z,1328
2017-07-11T17:52:10.286Z,1300
2017-07-11T17:53:09.819Z,1280
2017-07-11T17:54:09.497Z,1260
2017-07-11T17:55:10.246Z,1236
2017-07-11T17:56:10.281Z,1216
2017-07-11T17:57:10.076Z,1200
2017-07-11T17:58:09.424Z,1180
2017-07-11T17:59:10.143Z,1160
2017-07-11T18:00:10.066Z,1152
2017-07-11T18:01:10.059Z,1128
2017-07-11T18:02:10.034Z,1108
2017-07-11T18:03:10.009Z,1084
2017-07-11T18:04:09.986Z,1060
2017-07-11T18:05:09.684Z,1032
2017-07-11T18:06:09.963Z,996
2017-07-11T18:07:09.641Z,964
2017-07-11T18:08:10.020Z,944
2017-07-11T18:09:09.622Z,928
2017-07-11T18:10:09.958Z,916
2017-07-11T18:11:09.607Z,912
2017-07-11T18:12:09.887Z,912
2017-07-11T18:13:09.919Z,908
2017-07-11T18:14:09.879Z,900
2017-07-11T18:15:09.888Z,892
2017-07-11T18:16:09.848Z,872
2017-07-11T18:17:09.875Z,844
2017-07-11T18:18:09.834Z,820
2017-07-11T18:19:09.507Z,796
2017-07-11T18:20:09.790Z,772
2017-07-11T18:21:09.486Z,752
2017-07-11T18:22:09.862Z,744
2017-07-11T18:23:09.753Z,732
2017-07-11T18:24:09.762Z,728
2017-07-11T18:25:09.764Z,720
2017-07-11T18:26:09.753Z,720
2017-07-11T18:27:09.413Z,720
2017-07-11T18:28:09.378Z,716
2017-07-11T18:29:09.697Z,720
2017-07-11T18:30:09.687Z,728
2017-07-11T18:31:09.659Z,744
2017-07-11T18:32:09.654Z,756
2017-07-11T18:33:09.667Z,752
2017-07-11T18:34:09.624Z,744
2017-07-11T18:35:09.618Z,744
2017-07-11T18:36:09.290Z,740
2017-07-11T18:37:09.605Z,748
2017-07-11T18:38:09.277Z,752
2017-07-11T18:39:08.932Z,748
2017-07-11T18:40:09.251Z,740
2017-07-11T18:41:09.538Z,736
2017-07-11T18:42:09.566Z,732
2017-07-11T18:43:09.543Z,720
2017-07-11T18:44:09.515Z,700
2017-07-11T18:45:09.181Z,680
2017-07-11T18:46:09.480Z,656
2017-07-11T18:47:09.445Z,636
2017-07-11T18:48:09.480Z,612
2017-07-11T18:49:09.452Z,592
2017-07-11T18:50:09.437Z,572
2017-07-11T18:51:09.419Z,560
2017-07-11T18:52:09.420Z,548
2017-07-11T18:53:09.397Z,544
2017-07-11T18:54:09.385Z,548
2017-07-11T18:55:09.398Z,540
2017-07-11T18:56:09.093Z,528
2017-07-11T18:57:09.029Z,516
2017-07-11T18:58:09.342Z,504
2017-07-11T18:59:09.295Z,492
2017-07-11T19:00:09.115Z,476
2017-07-11T19:01:09.317Z,464
2017-07-11T19:02:09.295Z,452
2017-07-11T19:03:09.286Z,436
2017-07-11T19:04:09.376Z,428
2017-07-11T19:05:09.306Z,416
2017-07-11T19:06:09.247Z,404
2017-07-11T19:07:09.233Z,396
2017-07-11T19:08:09.287Z,376
2017-07-11T19:09:09.198Z,356
2017-07-11T19:10:09.207Z,332
2017-07-11T19:11:09.205Z,312
2017-07-11T19:12:09.176Z,296
2017-07-11T19:13:09.149Z,276
2017-07-11T19:14:09.144Z,260
2017-07-11T19:15:09.156Z,240
2017-07-11T19:16:09.128Z,224
2017-07-11T19:17:09.080Z,212
2017-07-11T19:18:09.196Z,196
2017-07-11T19:19:08.798Z,184
2017-07-11T19:20:09.139Z,172
2017-07-11T19:21:09.087Z,156
2017-07-11T19:22:08.765Z,140
2017-07-11T19:23:08.704Z,124
2017-07-11T19:24:09.032Z,112
2017-07-11T19:25:09.014Z,100
2017-07-11T19:26:08.699Z,92
2017-07-11T19:27:08.955Z,84
2017-07-11T19:28:08.987Z,76
2017-07-11T19:29:08.947Z,68
2017-07-11T19:30:08.929Z,64
2017-07-11T19:31:08.964Z,60
2017-07-11T19:32:08.905Z,60
2017-07-11T19:33:08.579Z,60
2017-07-11T19:34:08.582Z,56
2017-07-11T19:35:08.561Z,56
2017-07-11T19:36:08.829Z,52
2017-07-11T19:37:08.851Z,48
2017-07-11T19:38:08.842Z,48
2017-07-11T19:39:08.836Z,48
2017-07-11T19:40:08.798Z,44
2017-07-11T19:41:08.808Z,40
2017-07-11T19:42:08.817Z,40
2017-07-11T19:43:08.796Z,40
2017-07-11T19:44:08.752Z,32
2017-07-11T19:45:08.747Z,32
2017-07-11T19:46:08.746Z,28
2017-07-11T19:47:08.700Z,32
2017-07-11T19:48:08.720Z,28
2017-07-11T19:49:08.704Z,28
2017-07-11T19:50:08.676Z,28
2017-07-11T19:51:08.668Z,24
2017-07-11T19:52:08.626Z,24
2017-07-11T19:53:08.612Z,24
2017-07-11T19:54:08.618Z,24
2017-07-11T19:55:08.604Z,20
2017-07-11T19:56:08.657Z,16
2017-07-11T19:57:08.257Z,16
2017-07-11T19:58:08.308Z,12
2017-07-11T19:59:08.545Z,12
2017-07-11T20:00:07.888Z,12
2017-07-11T20:01:08.515Z,12
2017-07-11T20:02:08.179Z,12
2017-07-11T20:03:08.192Z,8
2017-07-11T20:04:08.469Z,8
2017-07-11T20:05:08.462Z,8
2017-07-11T20:06:08.438Z,4
2017-07-11T20:07:08.452Z,8
2017-07-11T20:08:08.414Z,8
2017-07-11T20:09:08.084Z,4
2017-07-11T20:10:08.096Z,4
2017-07-11T20:11:08.069Z,4
2017-07-11T20:12:07.750Z,4
2017-07-11T20:13:08.359Z,4
2017-07-11T20:14:08.029Z,4
2017-07-11T20:15:08.057Z,0
2017-07-11T20:16:08.164Z,4
2017-07-11T20:17:07.969Z,4
2017-07-11T20:18:08.309Z,4
2017-07-11T20:19:08.265Z,0
2017-07-11T20:20:08.270Z,0
2017-07-11T20:21:08.367Z,0
2017-07-11T20:22:08.331Z,0
2017-07-11T20:23:08.234Z,0
2017-07-11T20:24:08.315Z,0
2017-07-11T20:25:07.890Z,0
2017-07-11T20:26:07.869Z,0
2017-07-11T20:27:08.191Z,0
2017-07-11T20:28:08.160Z,0
2017-07-11T20:29:07.820Z,0
2017-07-11T20:30:07.817Z,0
2017-07-11T20:31:08.117Z,0
2017-07-11T20:32:07.459Z,0
2017-07-11T20:33:08.129Z,0
2017-07-11T20:34:07.781Z,0
2017-07-11T20:35:07.856Z,0
2017-07-11T20:36:08.069Z,0
2017-07-11T20:37:07.727Z,0
2017-07-11T20:38:07.705Z,0
2017-07-11T20:39:08.028Z,0
2017-07-11T20:40:07.982Z,0
2017-07-11T20:41:07.659Z,0
2017-07-11T20:42:07.951Z,0
2017-07-11T20:43:08.033Z,0
2017-07-11T20:44:07.601Z,0
2017-07-11T20:45:07.922Z,0
2017-07-11T20:46:07.887Z,0
2017-07-11T20:47:07.569Z,0
2017-07-11T20:48:07.549Z,0
2017-07-11T20:49:07.216Z,0
2017-07-11T20:50:07.523Z,0
2017-07-11T20:51:07.187Z,0
2017-07-11T20:52:07.829Z,0
2017-07-11T20:53:07.476Z,0
2017-07-11T20:54:07.780Z,0
2017-07-11T20:55:07.467Z,0
2017-07-11T20:56:07.461Z,0
2017-07-11T20:57:07.453Z,0
2017-07-11T20:58:07.709Z,0
2017-07-11T20:59:07.731Z,0
2017-07-11T21:00:07.754Z,0
2017-07-11T21:01:07.682Z,0
2017-07-11T21:02:07.353Z,0
2017-07-11T21:03:07.704Z,0
2017-07-11T21:04:07.342Z,0
2017-07-11T21:05:07.620Z,0
2017-07-11T21:06:07.298Z,0
2017-07-11T21:07:06.968Z,0
2017-07-11T21:08:07.577Z,0
2017-07-11T21:09:07.588Z,0
2017-07-11T21:10:07.577Z,0
2017-07-11T21:11:07.559Z,0
2017-07-11T21:12:07.532Z,0
2017-07-11T21:13:07.229Z,0
2017-07-11T21:14:07.482Z,0
2017-07-11T21:15:07.485Z,0
2017-07-11T21:16:07.162Z,0
2017-07-11T21:17:06.824Z,0
2017-07-11T21:18:07.171Z,0
2017-07-11T21:19:07.119Z,0
2017-07-11T21:20:07.427Z,0
2017-07-11T21:21:06.780Z,0
2017-07-11T21:22:07.064Z,0
2017-07-11T21:23:07.049Z,0
2017-07-11T21:24:06.745Z,0
2017-07-11T21:25:06.728Z,0
2017-07-11T21:26:07.344Z,0
2017-07-11T21:27:07.352Z,0
2017-07-11T21:28:07.312Z,0
2017-07-11T21:29:06.986Z,0
2017-07-11T21:30:06.635Z,0
2017-07-11T21:31:07.260Z,0
2017-07-11T21:32:07.251Z,0
2017-07-11T21:33:07.229Z,0
2017-07-11T21:34:06.911Z,0
2017-07-11T21:35:07.218Z,0
2017-07-11T21:36:07.203Z,0
2017-07-11T21:37:07.192Z,0
2017-07-11T21:38:06.869Z,0
2017-07-11T21:39:07.123Z,0
2017-07-11T21:40:06.819Z,0
2017-07-11T21:41:06.481Z,0
2017-07-11T21:42:06.492Z,0
2017-07-11T21:43:07.088Z,0
2017-07-11T21:44:07.069Z,0
2017-07-11T21:45:06.809Z,0
2017-07-11T21:46:06.741Z,0
2017-07-11T21:47:06.723Z,0
2017-07-11T21:48:07.018Z,0
2017-07-11T21:49:06.750Z,0
2017-07-11T21:50:06.709Z,0
2017-07-11T21:51:06.680Z,0
2017-07-11T21:52:06.979Z,0
2017-07-11T21:53:06.941Z,0
2017-07-11T21:54:06.960Z,0
2017-07-11T21:55:06.922Z,0
2017-07-11T21:56:06.927Z,0
2017-07-11T21:57:06.576Z,0
2017-07-11T21:58:06.549Z,0
2017-07-11T21:59:06.230Z,0
2017-07-11T22:00:06.870Z,0
2017-07-11T22:01:06.549Z,0
2017-07-11T22:02:06.928Z,0
2017-07-11T22:03:06.485Z,0
2017-07-11T22:04:06.809Z,0
2017-07-11T22:05:06.517Z,0
2017-07-11T22:06:06.459Z,0
2017-07-11T22:07:06.488Z,0
2017-07-11T22:08:06.851Z,0
2017-07-11T22:09:06.719Z,0
2017-07-11T22:10:06.726Z,0
2017-07-11T22:11:06.375Z,0
2017-07-11T22:12:06.692Z,0
2017-07-11T22:13:06.689Z,0
2017-07-11T22:14:06.318Z,0
2017-07-11T22:15:06.342Z,0
2017-07-11T22:16:06.710Z,0
2017-07-11T22:17:06.640Z,0
2017-07-11T22:18:06.629Z,0
2017-07-11T22:19:05.939Z,0
2017-07-11T22:20:05.600Z,0
2017-07-11T22:21:05.900Z,0
2017-07-11T22:22:05.892Z,0
2017-07-11T22:23:06.499Z,0
2017-07-11T22:24:06.530Z,0
2017-07-11T22:25:06.198Z,0
2017-07-11T22:26:06.149Z,0
2017-07-11T22:27:06.567Z,0
2017-07-11T22:28:06.119Z,0
2017-07-11T22:29:06.124Z,0
2017-07-11T22:30:06.092Z,0
2017-07-11T22:31:06.071Z,0
2017-07-11T22:32:06.060Z,0
2017-07-11T22:33:06.050Z,0
2017-07-11T22:34:06.030Z,0
2017-07-11T22:35:05.689Z,0
2017-07-11T22:36:06.312Z,0
2017-07-11T22:37:05.985Z,0
2017-07-11T22:38:05.965Z,0
2017-07-11T22:39:05.943Z,0
2017-07-11T22:40:06.003Z,0
2017-07-11T22:41:06.242Z,0
2017-07-11T22:42:05.910Z,0
2017-07-11T22:43:05.587Z,0
2017-07-11T22:44:05.890Z,0
2017-07-11T22:45:05.549Z,0
2017-07-11T22:46:05.850Z,0
2017-07-11T22:47:05.511Z,0
2017-07-11T22:48:06.160Z,0
2017-07-11T22:49:06.128Z,0
2017-07-11T22:50:05.792Z,0
2017-07-11T22:51:06.150Z,0
2017-07-11T22:52:06.100Z,0
2017-07-11T22:53:05.424Z,0
2017-07-11T22:54:06.042Z,0
2017-07-11T22:55:06.054Z,0
2017-07-11T22:56:05.407Z,0
2017-07-11T22:57:05.367Z,0
2017-07-11T22:58:05.994Z,0
2017-07-11T22:59:05.641Z,0
2017-07-11T23:00:05.971Z,0
2017-07-11T23:01:05.615Z,0
2017-07-11T23:02:05.321Z,0
2017-07-11T23:03:05.298Z,0
2017-07-11T23:04:05.579Z,0
2017-07-11T23:05:05.881Z,0
2017-07-11T23:06:05.540Z,0
2017-07-11T23:07:05.553Z,0
2017-07-11T23:08:05.830Z,0
2017-07-11T23:09:05.199Z,0
2017-07-11T23:10:05.185Z,0
2017-07-11T23:11:05.787Z,0
2017-07-11T23:12:05.799Z,0
2017-07-11T23:13:05.142Z,0
2017-07-11T23:14:05.742Z,0
2017-07-11T23:15:05.101Z,0
2017-07-11T23:16:05.721Z,0
2017-07-11T23:17:05.069Z,0
2017-07-11T23:18:05.063Z,0
2017-07-11T23:19:05.700Z,0
2017-07-11T23:20:05.321Z,0
2017-07-11T23:21:05.640Z,0
2017-07-11T23:22:05.630Z,0
2017-07-11T23:23:05.599Z,0
2017-07-11T23:24:05.610Z,0
2017-07-11T23:25:05.311Z,0
2017-07-11T23:26:05.259Z,0
2017-07-11T23:27:04.913Z,0
2017-07-11T23:28:05.208Z,0
2017-07-11T23:29:04.906Z,0
2017-07-11T23:30:04.868Z,0
2017-07-11T23:31:04.885Z,0
2017-07-11T23:32:05.482Z,0
2017-07-11T23:33:04.830Z,0
2017-07-11T23:34:05.433Z,0
2017-07-11T23:35:05.115Z,0
2017-07-11T23:36:05.166Z,0
2017-07-11T23:37:05.102Z,0
2017-07-11T23:38:05.401Z,0
2017-07-11T23:39:05.491Z,0
2017-07-11T23:40:05.044Z,0
2017-07-11T23:41:05.122Z,0
2017-07-11T23:42:04.698Z,0
2017-07-11T23:43:04.830Z,0
2017-07-11T23:44:04.728Z,0
2017-07-11T23:45:04.967Z,0
2017-07-11T23:46:04.970Z,0
2017-07-11T23:47:04.960Z,0
2017-07-11T23:48:04.980Z,0
2017-07-11T23:49:04.983Z,0
2017-07-11T23:50:04.900Z,0
2017-07-11T23:51:04.894Z,0
2017-07-11T23:52:04.601Z,0
2017-07-11T23:53:04.538Z,0
2017-07-11T23:54:04.901Z,0
2017-07-11T23:55:04.516Z,0
2017-07-11T23:56:04.898Z,0
2017-07-11T23:57:05.097Z,0
2017-07-11T23:58:04.801Z,0
2017-07-11T23:59:04.456Z,0
